Time;durP1;ratioP1;P1;durP2;ratioP2;P2;SDS_P1;SDS_P2;PMS_P1;PMS_P2;Temp;Humidity;BMP_temperature;BMP_pressure;BME280_temperature;BME280_humidity;BME280_pressure;Samples;Min_cycle;Max_cycle;Signal;HPM_P1;HPM_P2
2022/05/01 00:00:48;;;;;;;;;;;;;;;17.09;43.92;101281.25;5082896;28;984;-62
2022/05/01 00:03:30;;;;;;;;;;;;;;;17.41;45.99;101285.03;5098119;28;1971;-62
2022/05/01 00:06:00;;;;;;;;;;;;;;;17.83;47.48;101286.84;5098235;28;849;-62
2022/05/01 00:08:25;;;;;;;;;;;;;;;18.16;48.48;101275.69;5084350;28;871;-62
2022/05/01 00:10:51;;;;;;;;;;;;;;;18.40;48.92;101282.34;5098256;28;781;-63
2022/05/01 00:13:17;;;;;;;;;;;;;;;18.56;49.15;101276.84;5097486;28;1245;-62
2022/05/01 00:15:42;;;;;;;;;;;;;;;18.43;48.70;101279.03;5097716;28;838;-63
2022/05/01 00:18:08;;;;;;;;;;;;;;;18.23;47.98;101277.09;5097823;28;732;-62
2022/05/01 00:20:33;;;;;;;;;;;;;;;17.90;45.95;101279.16;5085916;28;933;-62
2022/05/01 00:22:59;;;;;;;;;;;;;;;17.64;44.31;101270.00;5078124;28;1910;-62
2022/05/01 00:25:25;;;;;;;;;;;;;;;17.41;42.93;101269.34;5094340;28;1692;-62
2022/05/01 00:27:50;;;;;;;;;;;;;;;17.23;41.95;101269.81;5097736;28;859;-62
2022/05/01 00:30:16;;;;;;;;;;;;;;;17.16;41.28;101270.03;5096203;28;1256;-62
2022/05/01 00:38:09;;;;;;;;;;;;;;;16.74;40.12;101271.63;5091235;28;862;-63
2022/05/01 00:40:35;;;;;;;;;;;;;;;16.71;40.32;101272.16;5077769;28;815;-61
2022/05/01 00:43:03;;;;;;;;;;;;;;;16.78;40.64;101274.69;5077717;28;1968;-61
2022/05/01 00:45:29;;;;;;;;;;;;;;;16.96;41.34;101268.00;5077507;28;741;-62
2022/05/01 00:47:54;;;;;;;;;;;;;;;17.13;42.76;101273.31;5078015;28;816;-63
2022/05/01 00:50:20;;;;;;;;;;;;;;;17.42;44.73;101272.94;5077423;28;872;-62
2022/05/01 00:52:45;;;;;;;;;;;;;;;17.78;46.38;101271.16;5077435;28;901;-62
2022/05/01 00:55:11;;;;;;;;;;;;;;;18.03;47.50;101271.53;5076506;28;1037;-63
2022/05/01 00:57:36;;;;;;;;;;;;;;;18.30;48.32;101260.31;5077054;28;837;-62
2022/05/01 01:00:02;;;;;;;;;;;;;;;18.53;48.41;101266.41;5076302;28;853;-62
2022/05/01 01:02:31;;;;;;;;;;;;;;;18.62;48.91;101265.56;5076680;28;1985;-62
2022/05/01 01:04:56;;;;;;;;;;;;;;;18.46;48.06;101267.47;5076932;28;853;-62
2022/05/01 01:07:22;;;;;;;;;;;;;;;18.20;46.80;101271.28;5077226;28;830;-62
2022/05/01 01:09:47;;;;;;;;;;;;;;;17.92;45.18;101270.69;5077570;28;936;-61
2022/05/01 01:15:08;;;;;;;;;;;;;;;17.32;41.76;101265.47;5092669;28;750;-61
2022/05/01 01:17:37;;;;;;;;;;;;;;;17.17;40.80;101262.63;5096964;28;865;-61
2022/05/01 01:20:11;;;;;;;;;;;;;;;17.05;40.18;101263.63;5096723;28;845;-62
2022/05/01 01:22:37;;;;;;;;;;;;;;;16.89;39.79;101267.38;5097085;28;1981;-62
2022/05/01 01:25:03;;;;;;;;;;;;;;;16.82;39.49;101269.50;5088961;28;914;-62
2022/05/01 01:27:28;;;;;;;;;;;;;;;16.83;40.03;101273.88;5096330;28;856;-62
2022/05/01 01:32:39;;;;;;;;;;;;;;;17.20;42.69;101284.09;5096553;28;829;-62
2022/05/01 01:35:05;;;;;;;;;;;;;;;17.35;43.79;101281.41;5095059;28;1053;-62
2022/05/01 01:37:32;;;;;;;;;;;;;;;17.44;44.54;101287.22;5080808;28;819;-62
2022/05/01 01:39:57;;;;;;;;;;;;;;;17.53;44.90;101285.63;5075851;28;995;-62
2022/05/01 01:42:23;;;;;;;;;;;;;;;17.64;45.40;101277.44;5074750;28;1894;-62
2022/05/01 01:44:48;;;;;;;;;;;;;;;17.71;45.58;101278.84;5075635;28;905;-62
2022/05/01 01:47:14;;;;;;;;;;;;;;;17.74;45.77;101272.81;5075436;28;857;-62
2022/05/01 01:49:39;;;;;;;;;;;;;;;17.82;45.64;101273.38;5076281;28;820;-62
2022/05/01 01:52:05;;;;;;;;;;;;;;;17.86;45.96;101280.81;5077200;28;917;-63
2022/05/01 01:54:30;;;;;;;;;;;;;;;17.92;46.10;101273.44;5076913;28;786;-63
2022/05/01 01:56:56;;;;;;;;;;;;;;;17.95;46.27;101278.41;5076274;28;904;-62
2022/05/01 01:59:22;;;;;;;;;;;;;;;18.04;46.39;101284.22;5077263;28;832;-62
2022/05/01 02:01:48;;;;;;;;;;;;;;;18.11;46.34;101282.03;5080185;28;961;-63
2022/05/01 02:04:14;;;;;;;;;;;;;;;18.10;46.28;101275.69;5076691;28;1913;-63
2022/05/01 02:06:39;;;;;;;;;;;;;;;18.18;46.40;101281.78;5076796;28;999;-63
2022/05/01 02:09:06;;;;;;;;;;;;;;;18.23;46.22;101287.25;5083312;28;903;-63
2022/05/01 02:11:33;;;;;;;;;;;;;;;18.17;46.20;101275.41;5095503;28;810;-63
2022/05/01 02:13:59;;;;;;;;;;;;;;;18.02;45.77;101278.97;5094693;28;1054;-63
2022/05/01 02:16:25;;;;;;;;;;;;;;;17.82;44.39;101284.38;5076226;28;837;-62
2022/05/01 02:18:51;;;;;;;;;;;;;;;17.62;43.23;101280.44;5076672;28;869;-62
2022/05/01 02:21:35;;;;;;;;;;;;;;;17.43;41.90;101286.41;5078390;28;888;-62
2022/05/01 02:24:10;;;;;;;;;;;;;;;17.23;41.23;101286.28;5088760;28;1976;-62
2022/05/01 02:26:35;;;;;;;;;;;;;;;17.07;40.38;101291.69;5099374;28;900;-62
2022/05/01 02:29:02;;;;;;;;;;;;;;;17.01;39.98;101292.75;5080284;28;915;-63
2022/05/01 02:31:27;;;;;;;;;;;;;;;16.91;39.78;101299.00;5080516;28;765;-63
2022/05/01 02:33:53;;;;;;;;;;;;;;;16.91;40.38;101290.75;5080725;28;777;-63
2022/05/01 02:36:18;;;;;;;;;;;;;;;17.18;41.96;101287.09;5080359;28;934;-62
2022/05/01 02:38:46;;;;;;;;;;;;;;;17.48;44.12;101287.53;5081989;28;887;-63
2022/05/01 02:41:12;;;;;;;;;;;;;;;17.85;45.51;101290.19;5084008;28;1378;-63
2022/05/01 02:43:37;;;;;;;;;;;;;;;18.18;46.23;101290.84;5080125;28;1985;-63
2022/05/01 02:46:03;;;;;;;;;;;;;;;18.42;46.88;101293.09;5080046;28;790;-63
2022/05/01 02:48:28;;;;;;;;;;;;;;;18.60;47.32;101302.75;5080486;28;1492;-63
2022/05/01 02:50:53;;;;;;;;;;;;;;;18.52;47.45;101301.34;5080180;28;890;-63
2022/05/01 02:53:19;;;;;;;;;;;;;;;18.26;46.74;101306.00;5080031;28;915;-63
2022/05/01 02:55:46;;;;;;;;;;;;;;;18.07;45.52;101301.00;5080202;28;750;-61
2022/05/01 02:58:11;;;;;;;;;;;;;;;17.78;43.80;101295.06;5079674;28;838;-61
2022/05/01 03:00:37;;;;;;;;;;;;;;;17.45;42.59;101292.47;5099882;28;873;-61
2022/05/01 03:03:03;;;;;;;;;;;;;;;17.31;41.45;101294.03;5099063;28;1909;-60
2022/05/01 03:05:28;;;;;;;;;;;;;;;17.20;40.57;101297.81;5098766;28;861;-61
2022/05/01 03:07:55;;;;;;;;;;;;;;;17.09;40.28;101305.16;5080987;28;932;-61
2022/05/01 03:10:24;;;;;;;;;;;;;;;16.97;40.05;101305.38;5078656;28;974;-62
2022/05/01 03:12:49;;;;;;;;;;;;;;;16.84;40.05;101300.28;5079683;28;1237;-61
2022/05/01 03:15:15;;;;;;;;;;;;;;;16.97;40.86;101305.38;5078879;28;738;-59
2022/05/01 03:23:08;;;;;;;;;;;;;;;18.30;47.43;101310.69;5078093;28;1914;-64
2022/05/01 03:25:33;;;;;;;;;;;;;;;18.84;48.39;101310.47;5078004;28;800;-64
2022/05/01 03:27:59;;;;;;;;;;;;;;;19.23;48.63;101323.69;5078067;28;821;-62
2022/05/01 03:30:24;;;;;;;;;;;;;;;18.53;52.17;101326.97;5079011;28;916;-63
2022/05/01 03:32:50;;;;;;;;;;;;;;;18.08;51.53;101321.91;5081941;28;785;-63
2022/05/01 03:35:16;;;;;;;;;;;;;;;16.60;53.16;101326.16;5078403;28;761;-61
2022/05/01 03:37:42;;;;;;;;;;;;;;;17.18;48.01;101319.22;5078417;28;826;-63
2022/05/01 03:40:09;;;;;;;;;;;;;;;17.29;45.19;101320.94;5078514;28;762;-61
2022/05/01 03:42:34;;;;;;;;;;;;;;;17.19;43.73;101323.63;5077705;28;1910;-61
2022/05/01 03:44:59;;;;;;;;;;;;;;;17.07;42.48;101324.66;5077605;28;884;-61
2022/05/01 03:47:25;;;;;;;;;;;;;;;17.04;41.57;101333.44;5078562;28;1174;-62
2022/05/01 03:49:50;;;;;;;;;;;;;;;16.90;41.07;101335.81;5080048;28;1212;-62
2022/05/01 03:52:16;;;;;;;;;;;;;;;16.83;41.04;101340.66;5082349;28;1201;-63
2022/05/01 03:54:41;;;;;;;;;;;;;;;16.91;41.21;101342.97;5079781;28;1083;-62
2022/05/01 03:57:09;;;;;;;;;;;;;;;17.19;43.54;101342.88;5077984;28;1053;-61
2022/05/01 03:59:34;;;;;;;;;;;;;;;17.51;45.54;101339.25;5085003;28;1381;-61
2022/05/01 04:02:00;;;;;;;;;;;;;;;17.83;47.44;101346.56;5080187;28;1917;-61
2022/05/01 04:04:26;;;;;;;;;;;;;;;18.05;48.82;101346.41;5095964;28;885;-62
2022/05/01 04:06:51;;;;;;;;;;;;;;;18.31;49.59;101347.28;5096805;28;881;-61
2022/05/01 04:09:16;;;;;;;;;;;;;;;18.51;49.94;101353.94;5087568;28;898;-61
2022/05/01 04:11:42;;;;;;;;;;;;;;;18.53;49.95;101338.00;5077470;28;905;-60
2022/05/01 04:14:07;;;;;;;;;;;;;;;18.39;48.92;101345.94;5031968;28;1301220;-67
2022/05/01 04:16:33;;;;;;;;;;;;;;;18.21;47.08;101348.09;5078117;28;901;-64
2022/05/01 04:18:58;;;;;;;;;;;;;;;17.96;45.57;101351.59;5078251;28;897;-66
2022/05/01 04:21:23;;;;;;;;;;;;;;;17.68;44.08;101336.31;5078009;28;790;-64
2022/05/01 04:23:49;;;;;;;;;;;;;;;17.48;42.54;101340.59;5080012;28;1910;-63
2022/05/01 04:26:14;;;;;;;;;;;;;;;17.32;41.79;101330.59;5097868;28;915;-62
2022/05/01 04:29:36;;;;;;;;;;;;;;;17.16;40.94;101326.91;5097299;28;822;-60
2022/05/01 04:31:27;;;;;;;;;;;;;;;17.01;40.30;101333.97;5097219;28;1515;-58
2022/05/01 04:33:53;;;;;;;;;;;;;;;16.97;39.88;101334.75;5097186;28;798;-58
2022/05/01 04:36:18;;;;;;;;;;;;;;;16.84;39.64;101327.75;5077562;28;870;-58
2022/05/01 04:38:44;;;;;;;;;;;;;;;16.81;40.07;101320.84;5078557;28;1546;-58
2022/05/01 04:41:09;;;;;;;;;;;;;;;16.90;41.22;101326.72;5094010;28;1435;-59
2022/05/01 04:43:36;;;;;;;;;;;;;;;17.11;42.43;101322.22;5096312;28;1909;-59
2022/05/01 04:46:02;;;;;;;;;;;;;;;17.19;43.68;101321.72;5096986;28;1440;-60
2022/05/01 04:48:27;;;;;;;;;;;;;;;17.36;44.36;101324.31;5082838;28;791;-59
2022/05/01 04:50:53;;;;;;;;;;;;;;;17.50;44.90;101326.56;5077608;28;804;-58
2022/05/01 04:53:19;;;;;;;;;;;;;;;17.64;45.43;101321.44;5092374;28;847;-57
2022/05/01 04:55:45;;;;;;;;;;;;;;;17.71;45.91;101322.84;5081083;28;877;-58
2022/05/01 04:58:10;;;;;;;;;;;;;;;17.74;46.04;101321.47;5078147;28;730;-59
2022/05/01 05:00:36;;;;;;;;;;;;;;;17.81;46.14;101332.22;5076894;28;929;-58
2022/05/01 05:03:01;;;;;;;;;;;;;;;17.87;46.35;101336.69;5076835;28;1906;-58
2022/05/01 05:05:27;;;;;;;;;;;;;;;17.94;46.31;101331.78;5075840;28;1394;-59
2022/05/01 05:07:52;;;;;;;;;;;;;;;17.93;46.55;101321.88;5077396;28;773;-61
2022/05/01 05:10:18;;;;;;;;;;;;;;;18.00;46.42;101321.63;5077284;28;831;-59
2022/05/01 05:12:44;;;;;;;;;;;;;;;18.02;46.36;101317.50;5076330;28;1016;-59
2022/05/01 05:15:10;;;;;;;;;;;;;;;18.04;46.46;101315.28;5077331;28;794;-63
2022/05/01 05:17:36;;;;;;;;;;;;;;;18.20;46.39;101307.06;5077073;28;782;-62
2022/05/01 05:20:03;;;;;;;;;;;;;;;18.22;46.64;101305.72;5096818;28;1101;-59
2022/05/01 05:22:28;;;;;;;;;;;;;;;18.17;46.17;101302.94;5096284;28;1968;-59
2022/05/01 05:24:54;;;;;;;;;;;;;;;18.11;46.20;101301.28;5085752;28;1341;-59
2022/05/01 05:27:21;;;;;;;;;;;;;;;18.05;45.60;101300.44;5076556;28;861;-59
2022/05/01 05:29:49;;;;;;;;;;;;;;;18.07;45.30;101303.75;5078343;28;1424;-59
2022/05/01 05:32:15;;;;;;;;;;;;;;;18.02;45.33;101295.50;5077741;28;1475;-59
2022/05/01 05:34:40;;;;;;;;;;;;;;;18.01;45.46;101295.75;5076526;28;865;-59
2022/05/01 05:37:06;;;;;;;;;;;;;;;18.05;45.43;101291.38;5077011;28;881;-61
2022/05/01 05:39:31;;;;;;;;;;;;;;;17.97;45.30;101294.66;5076656;28;781;-60
2022/05/01 05:41:56;;;;;;;;;;;;;;;17.95;45.10;101295.75;5076790;28;844;-60
2022/05/01 05:44:22;;;;;;;;;;;;;;;17.92;45.10;101299.03;5076222;28;1901;-62
2022/05/01 05:46:47;;;;;;;;;;;;;;;17.90;44.89;101308.63;5076292;28;841;-59
2022/05/01 05:49:13;;;;;;;;;;;;;;;17.91;44.68;101296.56;5076587;28;773;-59
2022/05/01 05:51:38;;;;;;;;;;;;;;;17.94;44.71;101302.31;5076026;28;781;-58
2022/05/01 05:54:04;;;;;;;;;;;;;;;17.89;44.57;101306.97;5076624;28;875;-57
2022/05/01 05:56:29;;;;;;;;;;;;;;;17.89;44.57;101302.31;5076855;28;734;-59
2022/05/01 05:58:56;;;;;;;;;;;;;;;17.93;44.46;101303.41;5076478;28;788;-60
2022/05/01 06:01:21;;;;;;;;;;;;;;;17.92;44.68;101298.19;5076806;28;1409;-57
2022/05/01 06:03:46;;;;;;;;;;;;;;;17.93;44.44;101299.84;5089009;28;1952;-56
2022/05/01 06:06:14;;;;;;;;;;;;;;;17.97;44.54;101311.16;5075973;28;734;-56
2022/05/01 06:08:39;;;;;;;;;;;;;;;17.91;44.75;101304.81;5076586;28;898;-56
2022/05/01 06:11:05;;;;;;;;;;;;;;;17.94;44.57;101309.78;5077411;28;1284;-57
2022/05/01 06:13:30;;;;;;;;;;;;;;;17.94;44.66;101309.78;5078636;28;1286;-59
2022/05/01 06:15:56;;;;;;;;;;;;;;;17.89;44.54;101304.22;5075692;28;817;-58
2022/05/01 06:18:21;;;;;;;;;;;;;;;17.93;44.32;101313.59;5076370;28;849;-57
2022/05/01 06:20:47;;;;;;;;;;;;;;;17.90;44.38;101308.63;5076294;28;824;-57
2022/05/01 06:23:13;;;;;;;;;;;;;;;17.90;44.53;101308.63;5076780;28;1906;-58
2022/05/01 06:25:39;;;;;;;;;;;;;;;17.92;44.43;101311.94;5095540;28;876;-58
2022/05/01 06:28:05;;;;;;;;;;;;;;;17.94;44.74;101315.28;5095612;28;821;-59
2022/05/01 06:30:31;;;;;;;;;;;;;;;17.93;44.81;101313.59;5083274;28;1205;-58
2022/05/01 06:32:56;;;;;;;;;;;;;;;17.93;44.56;101319.13;5080509;28;1316;-58
2022/05/01 06:35:22;;;;;;;;;;;;;;;17.96;44.79;101318.56;5076628;28;1104;-59
2022/05/01 06:37:47;;;;;;;;;;;;;;;17.99;44.87;101317.22;5074716;28;1306;-60
2022/05/01 06:40:13;;;;;;;;;;;;;;;17.99;44.77;101323.53;5081699;28;850;-60
2022/05/01 06:42:38;;;;;;;;;;;;;;;17.88;44.71;101316.28;5075923;28;1910;-58
2022/05/01 06:45:04;;;;;;;;;;;;;;;17.92;44.88;101323.78;5075932;28;861;-58
2022/05/01 06:47:30;;;;;;;;;;;;;;;17.92;44.83;101317.44;5075933;28;838;-59
2022/05/01 06:49:55;;;;;;;;;;;;;;;17.91;44.77;101319.38;5076096;28;750;-58
2022/05/01 06:52:23;;;;;;;;;;;;;;;17.96;44.81;101313.06;5075776;28;817;-57
2022/05/01 06:54:51;;;;;;;;;;;;;;;17.97;44.67;101320.22;5079407;28;890;-58
2022/05/01 06:57:17;;;;;;;;;;;;;;;17.93;45.05;101319.94;5075836;28;1507;-60
2022/05/01 06:59:42;;;;;;;;;;;;;;;17.95;44.86;101319.69;5076012;28;773;-59
2022/05/01 07:02:08;;;;;;;;;;;;;;;17.92;44.58;101322.94;5075737;28;1973;-59
2022/05/01 07:04:33;;;;;;;;;;;;;;;17.94;44.77;101329.03;5075604;28;833;-58
2022/05/01 07:06:59;;;;;;;;;;;;;;;17.91;44.59;101324.88;5076034;28;1242;-58
2022/05/01 07:09:24;;;;;;;;;;;;;;;17.92;44.88;101326.56;5081967;28;901;-59
2022/05/01 07:11:49;;;;;;;;;;;;;;;17.97;44.65;101322.97;5079717;28;749;-58
2022/05/01 07:14:15;;;;;;;;;;;;;;;17.99;44.79;101334.53;5079308;28;1111;-58
2022/05/01 07:16:40;;;;;;;;;;;;;;;18.03;44.84;101335.66;5078919;28;805;-57
2022/05/01 07:19:06;;;;;;;;;;;;;;;18.02;44.91;101339.53;5079059;28;802;-57
2022/05/01 07:21:32;;;;;;;;;;;;;;;18.01;45.01;101332.34;5081597;28;908;-57
2022/05/01 07:23:57;;;;;;;;;;;;;;;18.00;44.80;101341.69;5079647;28;1918;-57
2022/05/01 07:26:23;;;;;;;;;;;;;;;18.00;44.88;101336.19;5078896;28;857;-59
2022/05/01 07:28:48;;;;;;;;;;;;;;;18.03;44.61;101335.66;5079043;28;873;-58
2022/05/01 07:31:13;;;;;;;;;;;;;;;18.04;44.55;101348.31;5079367;28;1190;-62
2022/05/01 07:33:39;;;;;;;;;;;;;;;18.02;44.59;101335.91;5079065;28;800;-59
2022/05/01 07:36:05;;;;;;;;;;;;;;;17.98;44.51;101337.56;5079422;28;1186;-60
2022/05/01 07:38:30;;;;;;;;;;;;;;;17.94;44.49;101334.53;5082199;28;1060;-58
2022/05/01 07:40:55;;;;;;;;;;;;;;;17.94;44.42;101329.84;5080418;28;1234;-61
2022/05/01 07:43:21;;;;;;;;;;;;;;;17.95;44.02;101333.44;5083162;28;1922;-59
2022/05/01 07:45:46;;;;;;;;;;;;;;;17.91;43.95;101324.06;5078286;28;778;-59
2022/05/01 07:48:12;;;;;;;;;;;;;;;17.88;44.22;101327.31;5078897;28;885;-57
2022/05/01 07:50:37;;;;;;;;;;;;;;;17.88;44.21;101338.31;5078889;28;826;-59
2022/05/01 07:53:03;;;;;;;;;;;;;;;17.88;44.08;101330.06;5078696;28;806;-58
2022/05/01 07:55:28;;;;;;;;;;;;;;;17.89;44.11;101327.06;5078739;28;876;-58
2022/05/01 07:57:53;;;;;;;;;;;;;;;17.88;44.21;101321.81;5080589;28;865;-58
2022/05/01 08:00:19;;;;;;;;;;;;;;;17.94;44.32;101329.84;5081984;28;765;-58
2022/05/01 08:05:29;;;;;;;;;;;;;;;17.88;44.26;101325.41;5098047;28;817;-57
2022/05/01 08:07:55;;;;;;;;;;;;;;;17.87;44.24;101331.19;5096413;28;1134;-57
2022/05/01 08:10:20;;;;;;;;;;;;;;;17.90;43.98;101330.63;5089873;28;971;-58
2022/05/01 08:12:46;;;;;;;;;;;;;;;17.88;43.89;101319.06;5076663;28;1127;-58
2022/05/01 08:15:12;;;;;;;;;;;;;;;17.89;43.94;101328.97;5079876;28;1249;-59
2022/05/01 08:17:37;;;;;;;;;;;;;;;17.89;44.11;101320.72;5082812;28;1233;-59
2022/05/01 08:22:47;;;;;;;;;;;;;;;17.94;44.22;101320.78;5084828;28;1969;-58
2022/05/01 08:25:12;;;;;;;;;;;;;;;17.92;44.19;101322.94;5090594;28;1190;-58
2022/05/01 08:27:39;;;;;;;;;;;;;;;17.90;43.98;101325.13;5095709;28;1232;-59
2022/05/01 08:30:04;;;;;;;;;;;;;;;17.88;44.18;101321.81;5095676;28;1366;-58
2022/05/01 08:32:31;;;;;;;;;;;;;;;17.92;44.15;101322.94;5097198;28;805;-58
2022/05/01 08:34:58;;;;;;;;;;;;;;;17.87;44.08;101323.75;5097359;28;852;-58
2022/05/01 08:37:23;;;;;;;;;;;;;;;17.83;44.08;101314.38;5086096;28;805;-58
2022/05/01 08:39:49;;;;;;;;;;;;;;;17.84;44.03;101313.28;5078057;28;848;-59
2022/05/01 08:42:14;;;;;;;;;;;;;;;17.88;43.79;101319.06;5077439;28;1981;-59
2022/05/01 08:44:40;;;;;;;;;;;;;;;17.83;43.86;101319.06;5077455;28;845;-60
2022/05/01 08:47:10;;;;;;;;;;;;;;;17.87;43.47;101314.66;5077920;28;750;-58
2022/05/01 08:49:35;;;;;;;;;;;;;;;17.86;44.11;101318.50;5076096;28;898;-58
2022/05/01 08:52:01;;;;;;;;;;;;;;;17.93;43.77;101316.34;5075510;28;1087;-57
2022/05/01 08:54:27;;;;;;;;;;;;;;;17.83;43.84;101324.56;5078182;28;884;-59
2022/05/01 08:56:52;;;;;;;;;;;;;;;17.86;43.68;101313.81;5076064;28;849;-60
2022/05/01 08:59:19;;;;;;;;;;;;;;;17.78;43.94;101317.94;5076622;28;1250;-58
2022/05/01 09:01:45;;;;;;;;;;;;;;;17.83;44.04;101321.81;5078896;28;765;-58
2022/05/01 09:04:12;;;;;;;;;;;;;;;17.74;43.76;101322.31;5082947;28;1918;-58
2022/05/01 09:06:38;;;;;;;;;;;;;;;17.78;43.40;101322.59;5096839;28;758;-58
2022/05/01 09:09:10;;;;;;;;;;;;;;;17.76;43.65;101313.78;5077076;28;1534;-58
2022/05/01 09:14:21;;;;;;;;;;;;;;;17.68;43.62;101311.56;5082803;28;1130;-58
2022/05/01 09:17:05;;;;;;;;;;;;;;;17.64;43.46;101308.50;5081995;28;1344;-60
2022/05/01 09:19:31;;;;;;;;;;;;;;;17.72;43.49;101319.00;5095071;28;790;-60
2022/05/01 09:21:56;;;;;;;;;;;;;;;17.69;43.38;101318.72;5096140;28;845;-59
2022/05/01 09:24:28;;;;;;;;;;;;;;;17.68;43.23;101315.13;5085221;28;1918;-58
2022/05/01 09:26:57;;;;;;;;;;;;;;;17.63;43.50;101315.13;5076592;28;804;-58
2022/05/01 09:29:23;;;;;;;;;;;;;;;17.62;43.28;101307.94;5075996;28;950;-58
2022/05/01 09:31:50;;;;;;;;;;;;;;;17.67;43.25;101310.72;5096447;28;888;-62
2022/05/01 09:34:29;;;;;;;;;;;;;;;17.72;43.43;101310.72;5095137;28;947;-59
2022/05/01 09:37:03;;;;;;;;;;;;;;;17.71;43.21;101314.59;5093007;28;1162;-60
2022/05/01 09:39:29;;;;;;;;;;;;;;;17.63;43.56;101306.84;5076637;28;941;-59
2022/05/01 09:41:55;;;;;;;;;;;;;;;17.66;43.25;101314.56;5080107;28;1042;-59
2022/05/01 09:44:22;;;;;;;;;;;;;;;17.61;43.68;101317.28;5076525;28;1917;-57
2022/05/01 09:46:47;;;;;;;;;;;;;;;17.67;43.42;101313.47;5078414;28;1068;-57
2022/05/01 09:49:14;;;;;;;;;;;;;;;17.68;43.21;101317.88;5076230;28;1302;-55
2022/05/01 09:51:42;;;;;;;;;;;;;;;17.62;43.64;101313.44;5079313;28;1214;-56
2022/05/01 09:54:08;;;;;;;;;;;;;;;17.61;43.29;101320.03;5079001;28;1245;-55
2022/05/01 09:56:43;;;;;;;;;;;;;;;17.65;43.57;101315.66;5080957;28;872;-55
2022/05/01 09:59:09;;;;;;;;;;;;;;;17.64;43.39;101305.75;5076541;28;833;-55
2022/05/01 10:01:34;;;;;;;;;;;;;;;17.57;43.52;101314.25;5076450;28;838;-55
2022/05/01 10:04:00;;;;;;;;;;;;;;;17.60;43.49;101318.41;5076484;28;1913;-57
2022/05/01 10:06:26;;;;;;;;;;;;;;;17.56;43.30;101318.09;5078726;28;1037;-57
2022/05/01 10:08:52;;;;;;;;;;;;;;;17.57;43.57;101316.16;5092276;28;1030;-58
2022/05/01 10:11:17;;;;;;;;;;;;;;;17.57;43.59;101316.16;5079150;28;1146;-58
2022/05/01 10:13:44;;;;;;;;;;;;;;;17.61;43.35;101314.53;5077751;28;1344;-59
2022/05/01 10:16:11;;;;;;;;;;;;;;;17.58;43.23;101318.66;5075878;28;798;-58
2022/05/01 10:18:37;;;;;;;;;;;;;;;17.58;43.29;101320.56;5076379;28;958;-59
2022/05/01 10:21:03;;;;;;;;;;;;;;;17.62;43.04;101316.19;5076223;28;821;-58
2022/05/01 10:23:28;;;;;;;;;;;;;;;17.51;43.38;101323.56;5094974;28;1913;-57
2022/05/01 10:26:03;;;;;;;;;;;;;;;17.53;43.41;101321.38;5076154;28;834;-58
2022/05/01 10:28:31;;;;;;;;;;;;;;;17.52;43.44;101316.16;5089629;28;797;-56
2022/05/01 10:34:07;;;;;;;;;;;;;;;17.48;43.31;101307.59;5075841;28;873;-59
2022/05/01 10:36:35;;;;;;;;;;;;;;;17.49;43.24;101308.41;5078598;28;1814;-61
2022/05/01 10:39:10;;;;;;;;;;;;;;;17.50;43.16;101321.94;5091609;28;1103;-58
2022/05/01 10:41:40;;;;;;;;;;;;;;;17.47;43.03;101313.38;5080587;28;1095;-59
2022/05/01 10:44:05;;;;;;;;;;;;;;;17.47;43.19;101321.63;5081622;28;1914;-59
2022/05/01 10:46:31;;;;;;;;;;;;;;;17.48;43.22;101317.78;5096440;28;1087;-58
2022/05/01 10:49:00;;;;;;;;;;;;;;;17.42;43.03;101323.25;5079999;28;801;-59
2022/05/01 10:51:36;;;;;;;;;;;;;;;17.40;43.29;101322.69;5079513;28;897;-58
2022/05/01 10:54:10;;;;;;;;;;;;;;;17.39;43.01;101320.19;5086182;28;878;-57
2022/05/01 10:56:36;;;;;;;;;;;;;;;17.39;42.99;101317.44;5079197;28;837;-58
2022/05/01 10:59:20;;;;;;;;;;;;;;;17.41;42.99;101318.84;5079452;28;1150;-57
2022/05/01 11:01:52;;;;;;;;;;;;;;;17.40;42.92;101317.19;5092886;28;1352;-57
2022/05/01 11:04:19;;;;;;;;;;;;;;;17.37;43.16;101323.19;5087305;28;1971;-57
2022/05/01 11:06:45;;;;;;;;;;;;;;;17.34;43.17;101315.50;5079843;28;794;-57
2022/05/01 11:09:13;;;;;;;;;;;;;;;17.36;43.04;101320.72;5087456;28;750;-58
2022/05/01 11:11:39;;;;;;;;;;;;;;;17.33;42.88;101324.81;5081091;28;894;-59
2022/05/01 11:14:04;;;;;;;;;;;;;;;17.28;42.99;101333.88;5078317;28;1148;-61
2022/05/01 11:16:48;;;;;;;;;;;;;;;17.29;43.06;101331.94;5079727;28;974;-59
2022/05/01 11:19:14;;;;;;;;;;;;;;;17.28;42.87;101319.31;5098186;28;1000;-58
2022/05/01 11:21:39;;;;;;;;;;;;;;;17.28;42.95;101314.63;5098593;28;820;-58
2022/05/01 11:24:05;;;;;;;;;;;;;;;17.28;42.93;101316.56;5082702;28;1914;-58
2022/05/01 11:26:31;;;;;;;;;;;;;;;17.28;42.87;101322.06;5078980;28;840;-58
2022/05/01 11:29:10;;;;;;;;;;;;;;;17.30;42.69;101317.13;5079028;28;758;-56
2022/05/01 11:31:35;;;;;;;;;;;;;;;17.30;43.02;101319.03;5092322;28;912;-58
2022/05/01 11:34:16;;;;;;;;;;;;;;;17.26;42.97;101325.06;5098055;28;830;-58
2022/05/01 11:37:03;;;;;;;;;;;;;;;17.27;42.92;101328.66;5078740;28;904;-58
2022/05/01 11:39:50;;;;;;;;;;;;;;;17.22;43.09;101315.72;5088067;28;859;-59
2022/05/01 11:42:29;;;;;;;;;;;;;;;17.23;42.85;101308.28;5098259;28;1874;-57
2022/05/01 11:44:55;;;;;;;;;;;;;;;17.22;42.63;101303.88;5098257;28;865;-57
2022/05/01 11:47:21;;;;;;;;;;;;;;;17.20;42.86;101295.88;5096320;28;880;-58
2022/05/01 11:49:47;;;;;;;;;;;;;;;17.25;42.68;101308.81;5078546;28;765;-56
2022/05/01 11:52:16;;;;;;;;;;;;;;;17.26;42.89;101305.00;5078312;28;786;-58
2022/05/01 11:55:06;;;;;;;;;;;;;;;17.20;42.84;101292.31;5085904;28;926;-59
2022/05/01 12:03:00;;;;;;;;;;;;;;;17.21;42.99;101283.81;5078091;28;1981;-57
2022/05/01 12:05:26;;;;;;;;;;;;;;;17.21;42.93;101280.25;5078632;28;1094;-57
2022/05/01 12:07:56;;;;;;;;;;;;;;;17.24;43.04;101271.47;5076940;28;1120;-60
2022/05/01 12:10:22;;;;;;;;;;;;;;;17.23;43.08;101267.06;5078792;28;982;-60
2022/05/01 12:12:47;;;;;;;;;;;;;;;17.26;43.21;101267.38;5077771;28;973;-57
2022/05/01 12:15:13;;;;;;;;;;;;;;;17.22;42.85;101257.16;5078369;28;964;-60
2022/05/01 12:17:39;;;;;;;;;;;;;;;17.23;42.94;101258.81;5078290;28;730;-59
2022/05/01 12:20:05;;;;;;;;;;;;;;;17.24;43.16;101258.53;5078163;28;841;-61
2022/05/01 12:22:37;;;;;;;;;;;;;;;17.34;43.78;101248.72;5077692;28;1906;-60
2022/05/01 12:25:02;;;;;;;;;;;;;;;17.30;43.30;101247.59;5078340;28;762;-59
2022/05/01 12:27:29;;;;;;;;;;;;;;;17.26;43.34;101250.03;5077575;28;844;-58
2022/05/01 12:29:55;;;;;;;;;;;;;;;17.23;43.45;101239.56;5076615;28;798;-58
2022/05/01 12:32:21;;;;;;;;;;;;;;;17.25;43.18;101240.13;5076330;28;814;-57
2022/05/01 12:34:46;;;;;;;;;;;;;;;17.23;43.24;101239.56;5077864;28;816;-58
2022/05/01 12:37:12;;;;;;;;;;;;;;;17.24;43.04;101236.56;5078085;28;859;-59
2022/05/01 12:39:37;;;;;;;;;;;;;;;17.23;43.03;101237.63;5082808;28;1363;-60
2022/05/01 12:45:07;;;;;;;;;;;;;;;17.22;43.04;101227.75;5092758;28;798;-58
2022/05/01 12:47:37;;;;;;;;;;;;;;;17.19;43.11;101233.75;5096974;28;825;-58
2022/05/01 12:50:03;;;;;;;;;;;;;;;17.20;42.97;101229.13;5097256;28;757;-58
2022/05/01 12:52:30;;;;;;;;;;;;;;;17.18;43.06;101225.78;5085004;28;785;-58
2022/05/01 12:55:17;;;;;;;;;;;;;;;17.18;42.98;101221.16;5077482;28;903;-58
2022/05/01 12:57:48;;;;;;;;;;;;;;;17.22;43.06;101226.91;5090522;28;841;-58
2022/05/01 13:00:29;;;;;;;;;;;;;;;17.23;43.19;101217.59;5097022;28;758;-59
2022/05/01 13:02:59;;;;;;;;;;;;;;;17.21;42.99;101219.78;5096200;28;1905;-59
2022/05/01 13:05:24;;;;;;;;;;;;;;;17.21;43.02;101219.78;5078489;28;898;-59
2022/05/01 13:07:50;;;;;;;;;;;;;;;17.22;42.97;101224.16;5077462;28;814;-59
2022/05/01 13:10:18;;;;;;;;;;;;;;;17.19;43.11;101213.72;5077687;28;805;-59
2022/05/01 13:12:44;;;;;;;;;;;;;;;17.21;43.29;101208.78;5076816;28;1269;-59
2022/05/01 13:15:10;;;;;;;;;;;;;;;17.21;43.08;101220.59;5075828;28;1549;-59
2022/05/01 13:17:36;;;;;;;;;;;;;;;17.17;43.35;101207.66;5076565;28;962;-59
2022/05/01 13:20:01;;;;;;;;;;;;;;;17.20;43.04;101207.94;5075368;28;825;-59
2022/05/01 13:22:27;;;;;;;;;;;;;;;17.22;43.13;101207.69;5076580;28;1902;-59
2022/05/01 13:24:53;;;;;;;;;;;;;;;17.23;43.17;101204.66;5077421;28;873;-59
2022/05/01 13:27:19;;;;;;;;;;;;;;;17.21;43.36;101211.53;5076809;28;710;-59